sensor_id;sensor_type;location;lat;lon;timestamp;P1;durP1;ratioP1;P2;durP2;ratioP2
52047;SDS011;46904;49.438;8.752;2023-11-21T00:00:05;1.25;;;1.05;;
52047;SDS011;46904;49.438;8.752;2023-11-21T00:02:31;1.98;;;1.08;;
52047;SDS011;46904;49.438;8.752;2023-11-21T00:04:57;1.73;;;0.93;;
52047;SDS011;46904;49.438;8.752;2023-11-21T00:07:22;1.55;;;1.10;;
52047;SDS011;46904;49.438;8.752;2023-11-21T00:09:48;1.67;;;0.90;;
52047;SDS011;46904;49.438;8.752;2023-11-21T00:12:13;2.13;;;1.10;;
52047;SDS011;46904;49.438;8.752;2023-11-21T00:14:39;1.65;;;1.08;;
52047;SDS011;46904;49.438;8.752;2023-11-21T00:17:05;1.83;;;1.00;;
52047;SDS011;46904;49.438;8.752;2023-11-21T00:19:31;2.80;;;1.40;;
52047;SDS011;46904;49.438;8.752;2023-11-21T00:21:59;2.53;;;1.27;;
52047;SDS011;46904;49.438;8.752;2023-11-21T00:24:25;3.58;;;1.48;;
52047;SDS011;46904;49.438;8.752;2023-11-21T00:26:57;1.20;;;1.00;;
52047;SDS011;46904;49.438;8.752;2023-11-21T00:29:23;2.25;;;1.25;;
52047;SDS011;46904;49.438;8.752;2023-11-21T00:31:48;2.47;;;1.25;;
52047;SDS011;46904;49.438;8.752;2023-11-21T00:34:14;1.83;;;1.40;;
52047;SDS011;46904;49.438;8.752;2023-11-21T00:36:40;2.60;;;1.15;;
52047;SDS011;46904;49.438;8.752;2023-11-21T00:39:05;3.90;;;1.38;;
52047;SDS011;46904;49.438;8.752;2023-11-21T00:41:31;1.80;;;1.33;;
52047;SDS011;46904;49.438;8.752;2023-11-21T00:43:57;1.38;;;1.00;;
52047;SDS011;46904;49.438;8.752;2023-11-21T00:46:23;3.92;;;1.58;;
52047;SDS011;46904;49.438;8.752;2023-11-21T00:48:49;5.80;;;1.77;;
52047;SDS011;46904;49.438;8.752;2023-11-21T00:51:15;3.42;;;1.55;;
52047;SDS011;46904;49.438;8.752;2023-11-21T00:53:40;1.88;;;1.10;;
52047;SDS011;46904;49.438;8.752;2023-11-21T00:56:06;4.90;;;1.60;;
52047;SDS011;46904;49.438;8.752;2023-11-21T00:58:31;2.25;;;1.40;;
52047;SDS011;46904;49.438;8.752;2023-11-21T01:00:59;2.97;;;1.45;;
52047;SDS011;46904;49.438;8.752;2023-11-21T01:03:25;2.42;;;1.20;;
52047;SDS011;46904;49.438;8.752;2023-11-21T01:05:50;2.30;;;1.58;;
52047;SDS011;46904;49.438;8.752;2023-11-21T01:08:16;2.70;;;1.40;;
52047;SDS011;46904;49.438;8.752;2023-11-21T01:10:42;3.42;;;1.35;;
52047;SDS011;46904;49.438;8.752;2023-11-21T01:13:10;2.10;;;1.30;;
52047;SDS011;46904;49.438;8.752;2023-11-21T01:15:36;2.20;;;1.15;;
52047;SDS011;46904;49.438;8.752;2023-11-21T01:18:01;2.67;;;1.50;;
52047;SDS011;46904;49.438;8.752;2023-11-21T01:20:27;2.85;;;1.40;;
52047;SDS011;46904;49.438;8.752;2023-11-21T01:29:22;2.35;;;1.20;;
52047;SDS011;46904;49.438;8.752;2023-11-21T01:35:06;1.80;;;1.27;;
52047;SDS011;46904;49.438;8.752;2023-11-21T01:42:59;1.75;;;1.60;;
52047;SDS011;46904;49.438;8.752;2023-11-21T16:37:34;4.47;;;3.03;;
52047;SDS011;46904;49.438;8.752;2023-11-21T16:40:00;5.63;;;2.80;;
52047;SDS011;46904;49.438;8.752;2023-11-21T17:20:12;9.23;;;2.70;;
52047;SDS011;46904;49.438;8.752;2023-11-21T17:22:38;4.95;;;3.00;;
52047;SDS011;46904;49.438;8.752;2023-11-21T17:25:04;8.63;;;2.70;;
52047;SDS011;46904;49.438;8.752;2023-11-21T17:27:30;7.40;;;3.03;;
52047;SDS011;46904;49.438;8.752;2023-11-21T17:29:55;9.68;;;4.90;;
52047;SDS011;46904;49.438;8.752;2023-11-21T17:32:21;6.60;;;3.95;;
52047;SDS011;46904;49.438;8.752;2023-11-21T17:34:46;4.47;;;2.83;;
52047;SDS011;46904;49.438;8.752;2023-11-21T17:37:12;6.72;;;3.00;;
52047;SDS011;46904;49.438;8.752;2023-11-21T17:39:39;4.35;;;2.40;;
52047;SDS011;46904;49.438;8.752;2023-11-21T17:42:04;4.40;;;2.53;;
52047;SDS011;46904;49.438;8.752;2023-11-21T17:44:30;4.47;;;2.35;;
52047;SDS011;46904;49.438;8.752;2023-11-21T17:46:55;4.18;;;2.58;;
52047;SDS011;46904;49.438;8.752;2023-11-21T17:49:21;4.75;;;2.83;;
52047;SDS011;46904;49.438;8.752;2023-11-21T17:51:46;4.22;;;2.85;;
52047;SDS011;46904;49.438;8.752;2023-11-21T17:54:12;5.40;;;3.35;;
52047;SDS011;46904;49.438;8.752;2023-11-21T17:56:38;8.60;;;4.22;;
52047;SDS011;46904;49.438;8.752;2023-11-21T17:59:03;6.65;;;3.63;;
52047;SDS011;46904;49.438;8.752;2023-11-21T18:01:29;8.18;;;3.85;;
52047;SDS011;46904;49.438;8.752;2023-11-21T18:03:54;5.05;;;2.65;;
52047;SDS011;46904;49.438;8.752;2023-11-21T18:06:20;3.67;;;2.30;;
52047;SDS011;46904;49.438;8.752;2023-11-21T18:08:46;3.90;;;1.92;;
52047;SDS011;46904;49.438;8.752;2023-11-21T18:11:11;5.97;;;2.20;;
52047;SDS011;46904;49.438;8.752;2023-11-21T18:13:37;3.00;;;2.03;;
52047;SDS011;46904;49.438;8.752;2023-11-21T18:16:05;3.17;;;2.10;;
52047;SDS011;46904;49.438;8.752;2023-11-21T18:18:33;4.03;;;1.80;;
52047;SDS011;46904;49.438;8.752;2023-11-21T18:21:00;3.60;;;1.95;;
52047;SDS011;46904;49.438;8.752;2023-11-21T18:23:26;4.88;;;2.22;;
52047;SDS011;46904;49.438;8.752;2023-11-21T18:25:51;3.63;;;2.00;;
52047;SDS011;46904;49.438;8.752;2023-11-21T18:28:17;3.88;;;2.00;;
52047;SDS011;46904;49.438;8.752;2023-11-21T18:30:46;2.88;;;2.10;;
52047;SDS011;46904;49.438;8.752;2023-11-21T18:33:11;4.13;;;2.10;;
52047;SDS011;46904;49.438;8.752;2023-11-21T18:35:37;2.28;;;1.83;;
52047;SDS011;46904;49.438;8.752;2023-11-21T18:38:02;3.05;;;2.28;;
52047;SDS011;46904;49.438;8.752;2023-11-21T18:40:31;5.00;;;2.05;;
52047;SDS011;46904;49.438;8.752;2023-11-21T18:43:00;2.40;;;1.88;;
52047;SDS011;46904;49.438;8.752;2023-11-21T18:45:25;21.02;;;3.25;;
52047;SDS011;46904;49.438;8.752;2023-11-21T18:47:51;3.47;;;2.08;;
52047;SDS011;46904;49.438;8.752;2023-11-21T18:50:16;4.72;;;2.10;;
52047;SDS011;46904;49.438;8.752;2023-11-21T18:52:42;3.50;;;2.15;;
52047;SDS011;46904;49.438;8.752;2023-11-21T18:55:08;4.40;;;2.08;;
52047;SDS011;46904;49.438;8.752;2023-11-21T18:57:33;4.38;;;2.47;;
52047;SDS011;46904;49.438;8.752;2023-11-21T18:59:59;4.28;;;2.50;;
52047;SDS011;46904;49.438;8.752;2023-11-21T19:02:25;9.60;;;3.30;;
52047;SDS011;46904;49.438;8.752;2023-11-21T19:04:50;9.18;;;4.30;;
52047;SDS011;46904;49.438;8.752;2023-11-21T19:07:16;3.95;;;2.00;;
52047;SDS011;46904;49.438;8.752;2023-11-21T19:09:41;4.13;;;2.50;;
52047;SDS011;46904;49.438;8.752;2023-11-21T19:12:07;4.55;;;2.03;;
52047;SDS011;46904;49.438;8.752;2023-11-21T19:14:32;3.55;;;2.10;;
52047;SDS011;46904;49.438;8.752;2023-11-21T19:16:58;4.38;;;2.20;;
52047;SDS011;46904;49.438;8.752;2023-11-21T19:19:24;3.63;;;2.35;;
52047;SDS011;46904;49.438;8.752;2023-11-21T19:21:49;6.00;;;2.58;;
52047;SDS011;46904;49.438;8.752;2023-11-21T19:24:15;4.68;;;2.70;;
52047;SDS011;46904;49.438;8.752;2023-11-21T19:26:40;4.80;;;3.13;;
52047;SDS011;46904;49.438;8.752;2023-11-21T19:29:06;6.57;;;2.97;;
52047;SDS011;46904;49.438;8.752;2023-11-21T19:31:31;5.25;;;2.65;;
52047;SDS011;46904;49.438;8.752;2023-11-21T19:33:57;5.25;;;3.53;;
52047;SDS011;46904;49.438;8.752;2023-11-21T19:36:26;4.70;;;2.80;;
52047;SDS011;46904;49.438;8.752;2023-11-21T19:38:51;4.37;;;2.30;;
52047;SDS011;46904;49.438;8.752;2023-11-21T19:41:17;5.13;;;2.97;;
52047;SDS011;46904;49.438;8.752;2023-11-21T19:43:44;4.35;;;2.78;;
52047;SDS011;46904;49.438;8.752;2023-11-21T19:46:10;5.07;;;2.70;;
52047;SDS011;46904;49.438;8.752;2023-11-21T19:48:35;5.47;;;3.20;;
52047;SDS011;46904;49.438;8.752;2023-11-21T19:51:01;4.65;;;2.83;;
52047;SDS011;46904;49.438;8.752;2023-11-21T19:53:27;5.05;;;2.70;;
52047;SDS011;46904;49.438;8.752;2023-11-21T19:55:53;3.35;;;2.75;;
52047;SDS011;46904;49.438;8.752;2023-11-21T19:58:18;4.55;;;3.20;;
52047;SDS011;46904;49.438;8.752;2023-11-21T20:00:44;4.45;;;3.28;;
52047;SDS011;46904;49.438;8.752;2023-11-21T20:03:10;6.47;;;4.55;;
52047;SDS011;46904;49.438;8.752;2023-11-21T20:05:35;7.38;;;4.70;;
52047;SDS011;46904;49.438;8.752;2023-11-21T20:08:01;7.28;;;5.50;;
52047;SDS011;46904;49.438;8.752;2023-11-21T20:10:26;6.25;;;5.05;;
52047;SDS011;46904;49.438;8.752;2023-11-21T20:12:52;5.63;;;4.30;;
52047;SDS011;46904;49.438;8.752;2023-11-21T20:15:18;5.10;;;3.45;;
52047;SDS011;46904;49.438;8.752;2023-11-21T20:17:43;6.88;;;3.67;;
52047;SDS011;46904;49.438;8.752;2023-11-21T20:20:10;7.78;;;3.92;;
52047;SDS011;46904;49.438;8.752;2023-11-21T20:22:35;5.78;;;3.47;;
52047;SDS011;46904;49.438;8.752;2023-11-21T20:25:01;4.07;;;3.10;;
52047;SDS011;46904;49.438;8.752;2023-11-21T20:27:27;6.18;;;3.30;;
52047;SDS011;46904;49.438;8.752;2023-11-21T20:29:55;4.82;;;3.38;;
52047;SDS011;46904;49.438;8.752;2023-11-21T20:32:21;5.25;;;3.42;;
52047;SDS011;46904;49.438;8.752;2023-11-21T20:34:46;7.05;;;3.45;;
52047;SDS011;46904;49.438;8.752;2023-11-21T20:37:12;4.90;;;3.28;;
52047;SDS011;46904;49.438;8.752;2023-11-21T20:39:37;6.75;;;3.10;;
52047;SDS011;46904;49.438;8.752;2023-11-21T20:42:03;4.97;;;3.00;;
52047;SDS011;46904;49.438;8.752;2023-11-21T20:44:28;5.38;;;3.13;;
52047;SDS011;46904;49.438;8.752;2023-11-21T20:46:54;5.28;;;3.40;;
52047;SDS011;46904;49.438;8.752;2023-11-21T20:49:20;5.53;;;3.42;;
52047;SDS011;46904;49.438;8.752;2023-11-21T20:51:46;5.38;;;3.97;;
52047;SDS011;46904;49.438;8.752;2023-11-21T20:54:12;5.05;;;3.35;;
52047;SDS011;46904;49.438;8.752;2023-11-21T20:56:37;6.10;;;3.92;;
52047;SDS011;46904;49.438;8.752;2023-11-21T20:59:03;6.82;;;4.45;;
52047;SDS011;46904;49.438;8.752;2023-11-21T21:01:29;6.07;;;3.97;;
52047;SDS011;46904;49.438;8.752;2023-11-21T21:03:54;6.78;;;4.65;;
52047;SDS011;46904;49.438;8.752;2023-11-21T21:06:20;11.55;;;4.90;;
52047;SDS011;46904;49.438;8.752;2023-11-21T21:08:46;6.10;;;4.68;;
52047;SDS011;46904;49.438;8.752;2023-11-21T21:11:11;7.35;;;4.60;;
52047;SDS011;46904;49.438;8.752;2023-11-21T21:13:37;6.75;;;4.72;;
52047;SDS011;46904;49.438;8.752;2023-11-21T21:16:02;8.60;;;4.97;;
52047;SDS011;46904;49.438;8.752;2023-11-21T21:18:28;7.20;;;3.92;;
52047;SDS011;46904;49.438;8.752;2023-11-21T21:20:54;5.45;;;4.00;;
52047;SDS011;46904;49.438;8.752;2023-11-21T21:23:20;5.95;;;3.85;;
52047;SDS011;46904;49.438;8.752;2023-11-21T21:25:45;4.95;;;3.60;;
52047;SDS011;46904;49.438;8.752;2023-11-21T21:28:11;4.35;;;3.00;;
52047;SDS011;46904;49.438;8.752;2023-11-21T21:30:36;4.93;;;3.10;;
52047;SDS011;46904;49.438;8.752;2023-11-21T21:33:02;4.63;;;2.75;;
52047;SDS011;46904;49.438;8.752;2023-11-21T21:35:28;4.15;;;2.70;;
52047;SDS011;46904;49.438;8.752;2023-11-21T21:37:56;4.43;;;2.90;;
52047;SDS011;46904;49.438;8.752;2023-11-21T21:40:23;3.43;;;2.93;;
52047;SDS011;46904;49.438;8.752;2023-11-21T21:42:48;4.53;;;3.13;;
52047;SDS011;46904;49.438;8.752;2023-11-21T21:45:17;4.30;;;3.00;;
52047;SDS011;46904;49.438;8.752;2023-11-21T21:47:42;3.45;;;2.78;;
52047;SDS011;46904;49.438;8.752;2023-11-21T21:50:08;3.00;;;2.50;;
52047;SDS011;46904;49.438;8.752;2023-11-21T21:52:34;4.35;;;3.30;;
52047;SDS011;46904;49.438;8.752;2023-11-21T21:55:01;3.63;;;2.65;;
52047;SDS011;46904;49.438;8.752;2023-11-21T21:57:26;3.38;;;2.50;;
52047;SDS011;46904;49.438;8.752;2023-11-21T21:59:52;6.13;;;2.80;;
52047;SDS011;46904;49.438;8.752;2023-11-21T22:02:17;3.25;;;2.38;;
52047;SDS011;46904;49.438;8.752;2023-11-21T22:04:43;2.20;;;1.88;;
52047;SDS011;46904;49.438;8.752;2023-11-21T22:07:08;2.80;;;1.80;;
52047;SDS011;46904;49.438;8.752;2023-11-21T22:09:34;2.25;;;1.80;;
52047;SDS011;46904;49.438;8.752;2023-11-21T22:11:59;2.20;;;1.55;;
52047;SDS011;46904;49.438;8.752;2023-11-21T22:14:25;2.60;;;1.70;;
52047;SDS011;46904;49.438;8.752;2023-11-21T22:16:50;2.38;;;1.83;;
52047;SDS011;46904;49.438;8.752;2023-11-21T22:19:16;2.72;;;2.13;;
52047;SDS011;46904;49.438;8.752;2023-11-21T22:21:42;2.50;;;1.95;;
52047;SDS011;46904;49.438;8.752;2023-11-21T22:24:07;2.10;;;1.55;;
52047;SDS011;46904;49.438;8.752;2023-11-21T22:26:33;1.88;;;1.40;;
52047;SDS011;46904;49.438;8.752;2023-11-21T22:28:58;1.40;;;1.23;;
52047;SDS011;46904;49.438;8.752;2023-11-21T22:31:24;2.10;;;1.30;;
52047;SDS011;46904;49.438;8.752;2023-11-21T22:33:50;1.45;;;1.35;;
52047;SDS011;46904;49.438;8.752;2023-11-21T22:36:15;1.38;;;1.23;;
52047;SDS011;46904;49.438;8.752;2023-11-21T22:38:42;1.77;;;1.40;;
52047;SDS011;46904;49.438;8.752;2023-11-21T22:41:08;2.03;;;1.23;;
52047;SDS011;46904;49.438;8.752;2023-11-21T22:43:33;1.85;;;1.45;;
52047;SDS011;46904;49.438;8.752;2023-11-21T22:46:01;2.80;;;1.17;;
52047;SDS011;46904;49.438;8.752;2023-11-21T22:48:26;1.48;;;1.30;;
52047;SDS011;46904;49.438;8.752;2023-11-21T22:50:52;2.88;;;1.35;;
52047;SDS011;46904;49.438;8.752;2023-11-21T22:53:17;1.60;;;1.50;;
52047;SDS011;46904;49.438;8.752;2023-11-21T22:55:43;1.40;;;1.30;;
52047;SDS011;46904;49.438;8.752;2023-11-21T22:58:09;1.58;;;1.42;;
52047;SDS011;46904;49.438;8.752;2023-11-21T23:00:35;1.95;;;1.75;;
52047;SDS011;46904;49.438;8.752;2023-11-21T23:03:00;1.48;;;1.25;;
52047;SDS011;46904;49.438;8.752;2023-11-21T23:05:27;1.38;;;1.20;;
52047;SDS011;46904;49.438;8.752;2023-11-21T23:07:52;2.53;;;1.38;;
52047;SDS011;46904;49.438;8.752;2023-11-21T23:10:20;1.30;;;1.20;;
52047;SDS011;46904;49.438;8.752;2023-11-21T23:12:45;2.15;;;1.52;;
52047;SDS011;46904;49.438;8.752;2023-11-21T23:15:11;3.40;;;1.70;;
52047;SDS011;46904;49.438;8.752;2023-11-21T23:17:44;2.45;;;1.50;;
52047;SDS011;46904;49.438;8.752;2023-11-21T23:20:13;1.40;;;1.30;;
52047;SDS011;46904;49.438;8.752;2023-11-21T23:22:41;1.77;;;1.67;;
52047;SDS011;46904;49.438;8.752;2023-11-21T23:25:07;1.50;;;1.10;;
52047;SDS011;46904;49.438;8.752;2023-11-21T23:27:32;1.35;;;1.23;;
52047;SDS011;46904;49.438;8.752;2023-11-21T23:29:58;2.65;;;1.30;;
52047;SDS011;46904;49.438;8.752;2023-11-21T23:32:23;1.42;;;1.33;;
52047;SDS011;46904;49.438;8.752;2023-11-21T23:34:49;1.90;;;1.30;;
52047;SDS011;46904;49.438;8.752;2023-11-21T23:37:15;1.42;;;1.30;;
52047;SDS011;46904;49.438;8.752;2023-11-21T23:39:40;1.95;;;1.48;;
52047;SDS011;46904;49.438;8.752;2023-11-21T23:42:06;2.20;;;1.58;;
52047;SDS011;46904;49.438;8.752;2023-11-21T23:44:31;1.70;;;1.50;;
52047;SDS011;46904;49.438;8.752;2023-11-21T23:46:57;2.08;;;1.50;;
52047;SDS011;46904;49.438;8.752;2023-11-21T23:49:32;2.00;;;1.80;;
52047;SDS011;46904;49.438;8.752;2023-11-21T23:51:58;1.92;;;1.70;;
52047;SDS011;46904;49.438;8.752;2023-11-21T23:54:26;2.42;;;2.10;;
52047;SDS011;46904;49.438;8.752;2023-11-21T23:56:52;1.80;;;1.70;;
52047;SDS011;46904;49.438;8.752;2023-11-21T23:59:17;1.75;;;1.60;;
